createdAt,value
2023-04-28T00:02:10.828Z,12.37
2023-04-28T00:04:37.930Z,12.40
2023-04-28T00:07:05.122Z,12.30
2023-04-28T00:09:31.935Z,12.17
2023-04-28T00:11:59.956Z,12.20
2023-04-28T00:14:26.896Z,12.27
2023-04-28T00:16:56.917Z,11.80
2023-04-28T00:19:23.901Z,12.00
2023-04-28T00:21:51.027Z,11.77
2023-04-28T00:24:18.021Z,11.77
2023-04-28T00:26:44.842Z,11.77
2023-04-28T00:29:11.783Z,11.53
2023-04-28T00:31:38.700Z,11.87
2023-04-28T00:34:05.591Z,11.93
2023-04-28T00:36:33.019Z,11.40
2023-04-28T00:38:59.987Z,11.90
2023-04-28T00:41:26.941Z,11.60
2023-04-28T00:43:53.913Z,11.80
2023-04-28T00:46:33.852Z,11.30
2023-04-28T00:49:00.883Z,11.70
2023-04-28T00:51:30.713Z,11.40
2023-04-28T00:53:57.882Z,11.53
2023-04-28T00:56:24.830Z,11.43
2023-04-28T00:58:51.759Z,11.77
2023-04-28T01:01:19.290Z,11.67
2023-04-28T01:03:47.576Z,11.50
2023-04-28T01:06:16.811Z,11.50
2023-04-28T01:08:48.908Z,11.70
2023-04-28T01:11:17.639Z,11.37
2023-04-28T01:14:07.805Z,11.43
2023-04-28T01:16:38.859Z,11.47
2023-04-28T01:19:16.678Z,11.93
2023-04-28T01:21:43.974Z,11.97
2023-04-28T01:24:18.821Z,11.57
2023-04-28T01:26:46.373Z,11.70
2023-04-28T01:29:13.310Z,11.40
2023-04-28T01:31:41.728Z,11.67
2023-04-28T01:34:08.635Z,11.47
2023-04-28T01:36:37.739Z,11.53
2023-04-28T01:39:05.663Z,11.60
2023-04-28T01:41:34.677Z,11.40
2023-04-28T01:44:01.689Z,11.47
2023-04-28T01:46:28.688Z,11.70
2023-04-28T01:48:55.460Z,11.20
2023-04-28T01:51:22.295Z,11.60
2023-04-28T01:53:49.138Z,11.53
2023-04-28T01:56:16.253Z,11.80
2023-04-28T01:58:43.484Z,11.37
2023-04-28T02:01:11.603Z,11.37
2023-04-28T02:03:38.594Z,11.80
2023-04-28T02:06:05.679Z,11.60
2023-04-28T02:08:32.413Z,11.50
2023-04-28T02:11:01.556Z,11.77
2023-04-28T02:13:28.477Z,11.63
2023-04-28T02:15:55.554Z,11.40
2023-04-28T02:18:22.342Z,11.50
2023-04-28T02:20:49.380Z,11.90
2023-04-28T02:23:16.162Z,11.80
2023-04-28T02:25:43.077Z,11.27
2023-04-28T02:28:13.152Z,11.67
2023-04-28T02:30:39.977Z,11.67
2023-04-28T02:33:06.766Z,11.40
2023-04-28T02:35:33.724Z,11.40
2023-04-28T02:38:00.492Z,11.40
2023-04-28T02:40:27.399Z,11.53
2023-04-28T02:42:54.341Z,11.40
2023-04-28T02:45:21.284Z,11.47
2023-04-28T02:47:48.121Z,11.33
2023-04-28T02:50:16.655Z,11.37
2023-04-28T02:52:43.426Z,10.93
2023-04-28T02:55:10.346Z,11.40
2023-04-28T02:57:37.282Z,11.60
2023-04-28T03:00:05.465Z,11.20
2023-04-28T03:02:39.588Z,11.10
2023-04-28T03:05:07.114Z,11.40
2023-04-28T03:07:33.935Z,11.40
2023-04-28T03:10:00.981Z,11.00
2023-04-28T03:12:28.394Z,11.27
2023-04-28T03:14:55.212Z,11.40
2023-04-28T03:17:22.019Z,11.30
2023-04-28T03:19:49.148Z,11.33
2023-04-28T03:22:16.137Z,11.50
2023-04-28T03:24:43.056Z,11.47
2023-04-28T03:27:09.997Z,11.43
2023-04-28T03:29:37.231Z,11.30
2023-04-28T03:32:04.033Z,11.60
2023-04-28T03:34:31.103Z,11.60
2023-04-28T03:36:58.244Z,11.40
2023-04-28T03:39:29.129Z,11.60
2023-04-28T03:41:56.330Z,11.47
2023-04-28T03:44:49.337Z,11.50
2023-04-28T03:47:16.430Z,11.77
2023-04-28T03:49:43.705Z,11.57
2023-04-28T03:52:10.635Z,11.20
2023-04-28T03:54:37.523Z,11.40
2023-04-28T03:57:04.623Z,11.40
2023-04-28T03:59:33.257Z,10.80
2023-04-28T04:02:00.315Z,11.37
2023-04-28T04:04:27.533Z,11.37
2023-04-28T04:06:56.379Z,11.30
2023-04-28T04:09:23.768Z,11.30
2023-04-28T04:11:50.578Z,11.30
2023-04-28T04:14:17.785Z,11.10
2023-04-28T04:16:44.966Z,10.93
2023-04-28T04:19:11.926Z,11.80
2023-04-28T04:21:41.493Z,11.30
2023-04-28T04:24:08.450Z,11.50
2023-04-28T04:26:35.573Z,11.90
2023-04-28T04:29:07.696Z,11.90
2023-04-28T04:31:34.958Z,11.90
2023-04-28T04:34:01.963Z,11.97
2023-04-28T04:36:28.838Z,11.63
2023-04-28T04:38:55.702Z,11.63
2023-04-28T04:41:23.460Z,11.43
2023-04-28T04:43:57.044Z,11.70
2023-04-28T04:46:29.104Z,11.57
2023-04-28T04:48:56.325Z,11.93
2023-04-28T04:51:23.202Z,12.10
2023-04-28T04:53:50.007Z,12.17
2023-04-28T04:56:16.985Z,11.87
2023-04-28T04:58:46.919Z,12.10
2023-04-28T05:01:40.597Z,11.40
2023-04-28T05:04:07.953Z,11.53
2023-04-28T05:06:35.961Z,11.77
2023-04-28T05:09:02.897Z,11.20
2023-04-28T05:11:30.285Z,11.60
2023-04-28T05:13:57.142Z,11.70
2023-04-28T05:16:24.655Z,11.30
2023-04-28T05:19:01.035Z,11.73
2023-04-28T05:21:28.756Z,11.43
2023-04-28T05:23:56.069Z,11.20
2023-04-28T05:26:23.802Z,11.50
2023-04-28T05:28:54.560Z,11.80
2023-04-28T05:31:21.395Z,11.53
2023-04-28T05:33:48.387Z,11.60
2023-04-28T05:36:17.039Z,11.57
2023-04-28T05:38:45.540Z,12.07
2023-04-28T05:41:12.747Z,12.10
2023-04-28T05:43:41.405Z,11.40
2023-04-28T05:46:18.216Z,11.67
2023-04-28T05:48:55.903Z,11.93
2023-04-28T05:51:22.698Z,12.43
2023-04-28T05:53:49.624Z,11.83
2023-04-28T05:56:17.207Z,11.67
2023-04-28T05:58:48.015Z,11.90
2023-04-28T06:01:14.932Z,11.53
2023-04-28T06:03:42.216Z,12.13
2023-04-28T06:06:11.009Z,12.20
2023-04-28T06:08:38.679Z,11.87
2023-04-28T06:11:06.312Z,11.57
2023-04-28T06:13:33.335Z,12.03
2023-04-28T06:16:00.383Z,12.13
2023-04-28T06:18:27.526Z,12.17
2023-04-28T06:20:54.480Z,11.80
2023-04-28T06:23:21.366Z,11.73
2023-04-28T06:25:49.495Z,12.00
2023-04-28T06:28:16.335Z,11.90
2023-04-28T06:30:43.126Z,11.10
2023-04-28T06:33:09.932Z,11.50
2023-04-28T06:35:39.004Z,11.50
2023-04-28T06:38:06.608Z,11.07
2023-04-28T06:40:33.457Z,11.47
2023-04-28T06:43:01.847Z,11.33
2023-04-28T06:45:42.251Z,11.53
2023-04-28T06:48:09.351Z,11.63
2023-04-28T06:50:38.702Z,11.53
2023-04-28T06:53:07.704Z,11.17
2023-04-28T06:55:35.161Z,11.30
2023-04-28T06:58:02.198Z,11.20
2023-04-28T07:00:29.058Z,10.57
2023-04-28T07:02:56.214Z,10.97
2023-04-28T07:05:23.137Z,11.20
2023-04-28T07:07:50.087Z,10.87
2023-04-28T07:10:17.210Z,10.00
2023-04-28T07:12:44.327Z,10.80
2023-04-28T07:15:11.800Z,10.80
2023-04-28T07:17:39.047Z,10.73
2023-04-28T07:20:07.083Z,11.00
2023-04-28T07:22:33.901Z,11.27
2023-04-28T07:25:00.736Z,11.17
2023-04-28T07:27:27.694Z,10.83
2023-04-28T07:29:54.545Z,11.00
2023-04-28T07:32:22.229Z,10.87
2023-04-28T07:34:49.206Z,11.37
2023-04-28T07:37:16.973Z,10.97
2023-04-28T07:39:43.760Z,10.70
2023-04-28T07:42:11.187Z,11.27
2023-04-28T07:44:38.075Z,10.67
2023-04-28T07:47:05.067Z,11.10
2023-04-28T07:49:32.033Z,10.47
2023-04-28T07:51:58.984Z,10.40
2023-04-28T07:54:25.825Z,10.57
2023-04-28T07:56:53.031Z,10.73
2023-04-28T07:59:20.016Z,10.73
2023-04-28T08:01:46.909Z,10.63
2023-04-28T08:04:14.064Z,10.53
2023-04-28T08:06:41.711Z,10.97
2023-04-28T08:09:08.721Z,11.30
2023-04-28T08:11:35.869Z,11.23
2023-04-28T08:14:03.550Z,11.40
2023-04-28T08:16:31.602Z,11.33
2023-04-28T08:18:59.855Z,10.97
2023-04-28T08:21:27.188Z,11.03
2023-04-28T08:23:54.088Z,10.67
2023-04-28T08:26:21.575Z,10.87
2023-04-28T08:28:48.369Z,11.20
2023-04-28T08:31:15.385Z,11.37
2023-04-28T08:33:44.756Z,10.57
2023-04-28T08:36:18.145Z,10.63
2023-04-28T08:38:46.179Z,11.50
2023-04-28T08:41:16.665Z,11.10
2023-04-28T08:43:44.823Z,11.20
2023-04-28T08:46:14.484Z,11.30
2023-04-28T08:48:45.261Z,11.53
2023-04-28T08:51:24.655Z,11.57
2023-04-28T08:56:27.546Z,11.60
2023-04-28T08:58:55.461Z,11.70
2023-04-28T09:01:22.284Z,11.97
2023-04-28T09:03:49.540Z,11.43
2023-04-28T09:06:16.509Z,11.67
2023-04-28T09:08:43.904Z,11.63
2023-04-28T09:11:13.717Z,12.10
2023-04-28T09:13:41.600Z,11.87
2023-04-28T09:16:08.665Z,11.77
2023-04-28T09:18:35.773Z,11.80
2023-04-28T09:21:13.318Z,11.47
2023-04-28T09:23:50.745Z,12.00
2023-04-28T09:26:17.725Z,11.60
2023-04-28T09:28:44.570Z,11.80
2023-04-28T09:31:25.903Z,11.30
2023-04-28T09:34:00.146Z,11.40
2023-04-28T09:36:30.917Z,11.70
2023-04-28T09:39:01.964Z,11.57
2023-04-28T09:41:45.550Z,11.37
2023-04-28T09:44:21.567Z,11.30
2023-04-28T09:46:48.600Z,11.53
2023-04-28T09:49:15.641Z,11.43
2023-04-28T09:51:42.842Z,11.57
2023-04-28T09:54:10.702Z,11.50
2023-04-28T09:56:41.052Z,11.17
2023-04-28T09:59:08.240Z,11.07
2023-04-28T10:01:41.041Z,11.40
2023-04-28T10:04:09.090Z,11.40
2023-04-28T10:06:39.308Z,11.47
2023-04-28T10:09:06.295Z,11.53
2023-04-28T10:11:34.850Z,11.73
2023-04-28T10:14:01.776Z,11.30
2023-04-28T10:16:31.359Z,11.63
2023-04-28T10:18:58.742Z,11.93
2023-04-28T10:21:27.281Z,11.53
2023-04-28T10:24:04.098Z,11.77
2023-04-28T10:27:22.186Z,11.03
2023-04-28T10:29:49.333Z,17.67
2023-04-28T10:32:18.892Z,11.47
2023-04-28T10:34:46.057Z,11.60
2023-04-28T10:37:15.088Z,11.80
2023-04-28T10:40:02.335Z,11.63
2023-04-28T10:42:56.239Z,11.87
2023-04-28T10:45:56.495Z,12.20
2023-04-28T10:48:47.101Z,12.17
2023-04-28T10:51:16.780Z,11.90
2023-04-28T10:53:47.501Z,11.70
2023-04-28T10:56:25.554Z,11.57
2023-04-28T10:58:59.156Z,11.90
2023-04-28T11:01:31.926Z,11.67
2023-04-28T11:04:13.382Z,11.50
2023-04-28T11:06:43.645Z,11.87
2023-04-28T11:09:16.001Z,11.80
2023-04-28T11:11:56.192Z,11.87
2023-04-28T11:14:23.078Z,12.13
2023-04-28T11:16:59.881Z,11.60
2023-04-28T11:19:28.830Z,11.83
2023-04-28T11:21:58.239Z,12.07
2023-04-28T11:24:27.432Z,11.80
2023-04-28T11:26:54.207Z,12.00
2023-04-28T11:29:38.411Z,12.07
2023-04-28T11:32:07.600Z,11.67
2023-04-28T11:34:35.698Z,11.63
2023-04-28T11:37:03.366Z,11.83
2023-04-28T11:39:32.255Z,11.73
2023-04-28T11:42:10.290Z,12.30
2023-04-28T11:44:37.226Z,11.57
2023-04-28T11:47:05.693Z,12.23
2023-04-28T11:49:43.792Z,12.07
2023-04-28T11:52:11.765Z,11.50
2023-04-28T11:54:39.203Z,11.50
2023-04-28T11:57:06.713Z,12.00
2023-04-28T11:59:35.049Z,11.67
2023-04-28T12:02:04.029Z,12.23
2023-04-28T12:04:38.365Z,12.13
2023-04-28T12:07:13.078Z,12.03
2023-04-28T12:09:42.813Z,12.30
2023-04-28T12:15:05.354Z,12.20
2023-04-28T12:17:41.823Z,12.20
2023-04-28T12:20:10.949Z,12.13
2023-04-28T12:22:46.837Z,12.40
2023-04-28T12:25:17.217Z,12.50
2023-04-28T12:28:00.790Z,12.50
2023-04-28T12:30:28.638Z,12.50
2023-04-28T12:32:56.201Z,12.50
2023-04-28T12:35:25.516Z,12.50
2023-04-28T12:37:53.892Z,12.40
2023-04-28T12:40:21.028Z,12.27
2023-04-28T12:42:47.971Z,12.53
2023-04-28T12:45:16.306Z,12.50
2023-04-28T12:47:43.431Z,12.17
2023-04-28T12:50:10.651Z,12.17
2023-04-28T12:52:37.656Z,12.33
2023-04-28T12:55:05.458Z,12.43
2023-04-28T12:57:32.283Z,12.07
2023-04-28T12:59:59.117Z,13.00
2023-04-28T13:02:26.086Z,11.80
2023-04-28T13:04:53.445Z,12.00
2023-04-28T13:07:20.868Z,12.10
2023-04-28T13:09:48.319Z,11.80
2023-04-28T13:12:15.684Z,12.40
2023-04-28T13:14:42.696Z,12.00
2023-04-28T13:17:10.503Z,12.07
2023-04-28T13:19:38.021Z,11.83
2023-04-28T13:22:06.728Z,11.87
2023-04-28T13:24:34.084Z,11.57
2023-04-28T13:27:00.930Z,11.77
2023-04-28T13:29:27.874Z,11.80
2023-04-28T13:31:54.773Z,12.03
2023-04-28T13:34:21.750Z,12.67
2023-04-28T13:36:51.065Z,12.23
2023-04-28T13:39:20.311Z,11.80
2023-04-28T13:41:47.610Z,12.20
2023-04-28T13:44:14.547Z,11.87
2023-04-28T13:46:42.010Z,12.20
2023-04-28T13:49:11.945Z,12.40
2023-04-28T13:51:39.199Z,12.17
2023-04-28T13:54:08.947Z,12.13
2023-04-28T13:56:36.765Z,12.10
2023-04-28T13:59:04.161Z,11.80
2023-04-28T14:01:31.252Z,11.77
2023-04-28T14:03:58.516Z,12.00
2023-04-28T14:06:27.424Z,11.83
2023-04-28T14:08:54.484Z,12.10
2023-04-28T14:11:21.508Z,11.80
2023-04-28T14:13:48.361Z,11.83
2023-04-28T14:16:15.235Z,11.63
2023-04-28T14:18:42.216Z,11.80
2023-04-28T14:21:09.261Z,11.97
2023-04-28T14:23:36.698Z,12.57
2023-04-28T14:26:03.684Z,12.00
2023-04-28T14:28:30.812Z,11.67
2023-04-28T14:30:57.820Z,12.00
2023-04-28T14:33:24.853Z,11.47
2023-04-28T14:35:51.710Z,12.00
2023-04-28T14:38:18.669Z,11.30
2023-04-28T14:40:45.588Z,11.77
2023-04-28T14:43:14.014Z,12.20
2023-04-28T14:45:41.114Z,12.07
2023-04-28T14:48:10.676Z,12.10
2023-04-28T14:50:37.921Z,12.13
2023-04-28T14:53:07.833Z,11.90
2023-04-28T14:55:35.040Z,12.03
2023-04-28T14:58:01.939Z,11.97
2023-04-28T15:00:29.452Z,11.77
2023-04-28T15:02:56.332Z,11.80
2023-04-28T15:05:23.391Z,12.37
2023-04-28T15:07:50.121Z,12.70
2023-04-28T15:10:17.580Z,12.50
2023-04-28T15:12:44.449Z,12.17
2023-04-28T15:15:11.925Z,12.60
2023-04-28T15:17:39.036Z,12.80
2023-04-28T15:20:08.163Z,12.10
2023-04-28T15:22:36.482Z,12.67
2023-04-28T15:25:03.656Z,12.17
2023-04-28T15:27:30.395Z,12.77
2023-04-28T15:29:57.540Z,12.40
2023-04-28T15:32:24.636Z,12.27
2023-04-28T15:34:51.895Z,12.23
2023-04-28T15:37:55.936Z,12.40
2023-04-28T15:40:22.728Z,12.53
2023-04-28T15:42:49.636Z,12.17
2023-04-28T15:45:18.524Z,12.60
2023-04-28T15:47:47.131Z,11.90
2023-04-28T15:50:14.208Z,12.03
2023-04-28T15:52:46.117Z,12.07
2023-04-28T15:55:17.638Z,12.03
2023-04-28T15:57:44.703Z,11.63
2023-04-28T16:00:12.796Z,11.63
2023-04-28T16:02:39.756Z,11.40
2023-04-28T16:05:07.347Z,11.90
2023-04-28T16:07:44.320Z,12.27
2023-04-28T16:10:13.973Z,12.30
2023-04-28T16:12:42.083Z,11.53
2023-04-28T16:15:10.909Z,11.60
2023-04-28T16:17:40.846Z,11.50
2023-04-28T16:20:09.596Z,11.50
2023-04-28T16:22:37.727Z,11.20
2023-04-28T16:25:05.292Z,11.40
2023-04-28T16:27:32.899Z,11.50
2023-04-28T16:30:00.084Z,12.03
2023-04-28T16:32:27.211Z,11.77
2023-04-28T16:34:57.476Z,11.67
2023-04-28T16:37:24.319Z,12.00
2023-04-28T16:39:51.486Z,11.90
2023-04-28T16:42:20.999Z,12.20
2023-04-28T16:44:49.032Z,11.43
2023-04-28T16:47:16.810Z,11.00
2023-04-28T16:49:43.644Z,10.83
2023-04-28T16:52:10.646Z,10.90
2023-04-28T16:54:37.537Z,11.30
2023-04-28T16:57:04.422Z,11.30
2023-04-28T16:59:31.392Z,11.23
2023-04-28T17:01:59.415Z,11.67
2023-04-28T17:04:27.123Z,11.60
2023-04-28T17:06:54.305Z,11.37
2023-04-28T17:09:22.198Z,11.60
2023-04-28T17:11:50.047Z,11.77
2023-04-28T17:14:17.080Z,11.53
2023-04-28T17:16:44.541Z,11.77
2023-04-28T17:19:12.199Z,11.60
2023-04-28T17:21:39.175Z,11.93
2023-04-28T17:24:06.190Z,11.70
2023-04-28T17:26:33.123Z,11.80
2023-04-28T17:29:00.197Z,11.60
2023-04-28T17:31:30.979Z,11.87
2023-04-28T17:33:59.565Z,11.43
2023-04-28T17:36:27.297Z,10.30
2023-04-28T17:38:57.793Z,10.37
2023-04-28T17:41:24.925Z,10.50
2023-04-28T17:43:51.922Z,10.87
2023-04-28T17:46:19.063Z,11.00
2023-04-28T17:48:46.284Z,11.10
2023-04-28T17:51:13.197Z,11.30
2023-04-28T17:53:40.023Z,11.00
2023-04-28T17:56:08.261Z,11.60
2023-04-28T17:58:36.328Z,11.40
2023-04-28T18:01:07.769Z,10.90
2023-04-28T18:03:38.884Z,10.40
2023-04-28T18:06:08.049Z,10.43
2023-04-28T18:08:36.856Z,10.57
2023-04-28T18:11:04.882Z,10.80
2023-04-28T18:13:33.029Z,10.33
2023-04-28T18:16:00.539Z,10.60
2023-04-28T18:18:29.806Z,10.87
2023-04-28T18:20:58.837Z,11.07
2023-04-28T18:23:26.770Z,11.13
2023-04-28T18:25:53.684Z,10.53
2023-04-28T18:28:20.556Z,10.60
2023-04-28T18:30:47.637Z,10.33
2023-04-28T18:33:14.451Z,10.83
2023-04-28T18:35:41.515Z,10.70
2023-04-28T18:38:08.324Z,10.30
2023-04-28T18:40:39.985Z,10.43
2023-04-28T18:43:08.664Z,10.37
2023-04-28T18:45:39.119Z,10.63
2023-04-28T18:48:07.454Z,10.40
2023-04-28T18:50:34.705Z,10.67
2023-04-28T18:53:02.474Z,10.67
2023-04-28T18:55:29.337Z,11.07
2023-04-28T18:57:56.183Z,10.40
2023-04-28T19:00:23.339Z,10.63
2023-04-28T19:02:50.426Z,10.93
2023-04-28T19:05:17.342Z,10.87
2023-04-28T19:07:44.332Z,11.17
2023-04-28T19:10:12.214Z,10.93
2023-04-28T19:12:39.244Z,10.70
2023-04-28T19:15:06.741Z,10.57
2023-04-28T19:17:33.702Z,11.20
2023-04-28T19:20:00.561Z,10.73
2023-04-28T19:22:31.561Z,10.43
2023-04-28T19:24:58.956Z,11.07
2023-04-28T19:27:28.737Z,10.40
2023-04-28T19:29:55.689Z,10.77
2023-04-28T19:32:22.617Z,10.70
2023-04-28T19:34:50.401Z,10.47
2023-04-28T19:37:17.326Z,11.17
2023-04-28T19:39:44.473Z,10.50
2023-04-28T19:42:11.390Z,10.53
2023-04-28T19:44:38.397Z,11.00
2023-04-28T19:47:07.262Z,11.13
2023-04-28T19:49:35.133Z,10.70
2023-04-28T19:52:02.788Z,10.57
2023-04-28T19:54:29.633Z,10.67
2023-04-28T19:56:56.674Z,11.00
2023-04-28T19:59:23.544Z,11.07
2023-04-28T20:01:50.663Z,11.40
2023-04-28T20:04:17.730Z,11.50
2023-04-28T20:06:45.068Z,11.23
2023-04-28T20:09:11.967Z,11.33
2023-04-28T20:11:38.801Z,11.60
2023-04-28T20:14:05.601Z,11.07
2023-04-28T20:16:32.414Z,11.57
2023-04-28T20:18:59.365Z,11.10
2023-04-28T20:21:27.179Z,11.63
2023-04-28T20:23:54.311Z,12.00
2023-04-28T20:26:21.146Z,11.10
2023-04-28T20:28:48.501Z,11.27
2023-04-28T20:31:15.502Z,11.67
2023-04-28T20:33:42.485Z,11.60
2023-04-28T20:36:09.272Z,11.47
2023-04-28T20:38:37.310Z,11.50
2023-04-28T20:41:04.456Z,11.90
2023-04-28T20:43:31.521Z,11.60
2023-04-28T20:45:58.364Z,11.30
2023-04-28T20:48:25.348Z,11.60
2023-04-28T20:50:53.863Z,12.20
2023-04-28T20:53:21.114Z,12.10
2023-04-28T20:55:48.073Z,11.90
2023-04-28T20:58:15.115Z,11.80
2023-04-28T21:00:44.033Z,11.60
2023-04-28T21:03:15.728Z,11.53
2023-04-28T21:05:44.938Z,11.40
2023-04-28T21:08:14.856Z,11.30
2023-04-28T21:10:42.258Z,11.77
2023-04-28T21:13:10.204Z,11.63
2023-04-28T21:15:38.423Z,11.90
2023-04-28T21:18:05.640Z,10.87
2023-04-28T21:20:32.705Z,11.07
2023-04-28T21:22:59.514Z,11.17
2023-04-28T21:25:26.467Z,11.50
2023-04-28T21:27:53.429Z,11.77
2023-04-28T21:30:22.020Z,11.60
2023-04-28T21:32:48.858Z,11.60
2023-04-28T21:35:16.430Z,11.50
2023-04-28T21:37:43.434Z,10.80
2023-04-28T21:40:10.578Z,11.27
2023-04-28T21:42:37.425Z,11.07
2023-04-28T21:45:04.929Z,11.10
2023-04-28T21:47:31.790Z,11.20
2023-04-28T21:49:58.720Z,10.57
2023-04-28T21:52:25.546Z,10.43
2023-04-28T21:54:52.703Z,11.67
2023-04-28T21:57:19.556Z,11.27
2023-04-28T21:59:46.344Z,11.00
2023-04-28T22:02:13.237Z,11.37
2023-04-28T22:04:40.882Z,11.60
2023-04-28T22:07:08.201Z,11.90
2023-04-28T22:09:35.215Z,11.90
2023-04-28T22:12:01.934Z,11.77
2023-04-28T22:14:40.463Z,11.57
2023-04-28T22:17:08.665Z,12.00
2023-04-28T22:19:35.592Z,11.90
2023-04-28T22:22:02.391Z,11.93
2023-04-28T22:24:29.191Z,11.77
2023-04-28T22:26:56.284Z,12.13
2023-04-28T22:29:23.024Z,12.30
2023-04-28T22:31:49.971Z,11.60
2023-04-28T22:34:16.850Z,11.93
2023-04-28T22:36:45.103Z,12.00
2023-04-28T22:39:12.436Z,12.00
2023-04-28T22:41:39.354Z,12.30
2023-04-28T22:44:06.157Z,12.20
2023-04-28T22:46:33.161Z,11.90
2023-04-28T22:49:01.263Z,12.03
2023-04-28T22:51:28.151Z,12.20
2023-04-28T22:53:54.899Z,12.23
2023-04-28T22:56:21.949Z,11.90
2023-04-28T22:58:48.822Z,11.90
2023-04-28T23:01:15.933Z,11.30
2023-04-28T23:03:42.942Z,11.53
2023-04-28T23:06:10.182Z,11.97
2023-04-28T23:08:36.976Z,11.70
2023-04-28T23:11:06.830Z,11.70
2023-04-28T23:13:33.784Z,11.87
2023-04-28T23:16:00.666Z,11.77
2023-04-28T23:18:33.144Z,11.77
2023-04-28T23:21:00.129Z,12.03
2023-04-28T23:23:26.894Z,12.20
2023-04-28T23:25:53.881Z,12.03
2023-04-28T23:28:20.668Z,11.90
2023-04-28T23:30:47.578Z,11.47
2023-04-28T23:33:14.368Z,11.90
2023-04-28T23:35:42.072Z,11.83
2023-04-28T23:38:08.912Z,12.30
2023-04-28T23:40:35.854Z,11.87
2023-04-28T23:43:02.732Z,11.70
2023-04-28T23:45:29.728Z,12.10
2023-04-28T23:47:56.579Z,11.90
2023-04-28T23:50:23.953Z,11.80
2023-04-28T23:52:50.927Z,12.10
2023-04-28T23:55:17.963Z,12.10
2023-04-28T23:57:44.718Z,12.00
